Time;durP1;ratioP1;P1;durP2;ratioP2;P2;SDS_P1;SDS_P2;PMS_P1;PMS_P2;Temp;Humidity;BMP_temperature;BMP_pressure;BME280_temperature;BME280_humidity;BME280_pressure;Samples;Min_cycle;Max_cycle;Signal;HPM_P1;HPM_P2
2022/04/06 00:02:23;;;;;;;1.80;1.70;;;;;;;8.44;100.00;95760.81;5028613;28;104046;-53
2022/04/06 00:04:52;;;;;;;1.87;1.77;;;;;;;8.46;100.00;95763.22;5027833;28;105419;-54
2022/04/06 00:07:20;;;;;;;1.93;1.73;;;;;;;8.45;100.00;95746.53;5028712;28;102007;-53
2022/04/06 00:09:47;;;;;;;2.10;1.87;;;;;;;8.51;100.00;95744.72;5028701;28;105556;-53
2022/04/06 00:12:13;;;;;;;1.60;1.50;;;;;;;8.48;100.00;95743.38;5027520;28;106105;-56
2022/04/06 00:14:40;;;;;;;1.73;1.63;;;;;;;8.54;100.00;95744.22;5028607;28;101846;-56
2022/04/06 00:17:07;;;;;;;2.33;1.70;;;;;;;8.51;100.00;95747.38;5031241;28;104062;-54
2022/04/06 00:19:35;;;;;;;1.70;1.60;;;;;;;8.53;100.00;95742.63;5011459;28;101985;-56
2022/04/06 00:22:04;;;;;;;1.77;1.67;;;;;;;8.52;100.00;95739.19;5028396;28;105211;-54
2022/04/06 00:24:31;;;;;;;2.20;2.10;;;;;;;8.56;100.00;95736.81;5027937;28;104201;-53
2022/04/06 00:26:58;;;;;;;2.37;2.17;;;;;;;8.55;100.00;95735.19;5029905;27;101785;-55
2022/04/06 00:29:26;;;;;;;1.87;1.77;;;;;;;8.55;100.00;95740.50;5029804;27;102382;-55
2022/04/06 00:31:53;;;;;;;1.73;1.63;;;;;;;8.57;100.00;95743.72;5027418;28;105847;-55
2022/04/06 00:35:28;;;;;;;2.77;1.83;;;;;;;8.56;100.00;95734.94;5029855;27;101690;-56
2022/04/06 00:37:08;;;;;;;1.80;1.70;;;;;;;8.55;100.00;95729.91;5029509;28;102500;-56
2022/04/06 00:39:35;;;;;;;1.50;1.40;;;;;;;8.51;100.00;95731.47;5032126;27;101845;-55
2022/04/06 00:42:02;;;;;;;1.33;1.30;;;;;;;8.50;100.00;95724.59;5029675;27;102329;-55
2022/04/06 00:44:34;;;;;;;1.67;1.57;;;;;;;8.51;100.00;95734.13;5027313;28;103807;-56
2022/04/06 00:47:02;;;;;;;1.67;1.57;;;;;;;8.54;100.00;95723.00;5029493;28;101704;-56
2022/04/06 00:49:29;;;;;;;1.60;1.50;;;;;;;8.53;100.00;95716.13;5029569;28;102515;-54
2022/04/06 00:51:57;;;;;;;1.80;1.70;;;;;;;8.58;100.00;95724.91;5029059;28;103288;-53
2022/04/06 00:54:25;;;;;;;1.93;1.83;;;;;;;8.58;100.00;95721.47;5029227;28;102138;-54
2022/04/06 00:56:52;;;;;;;2.60;1.50;;;;;;;8.61;100.00;95715.66;5029250;28;101696;-55
2022/04/06 00:59:20;;;;;;;2.87;1.70;;;;;;;8.61;100.00;95723.63;5032043;28;102532;-55
2022/04/06 01:01:49;;;;;;;1.80;1.70;;;;;;;8.58;100.00;95724.09;5029511;27;102620;-56
2022/04/06 01:04:18;;;;;;;2.30;1.70;;;;;;;8.59;100.00;95718.56;5032310;28;102761;-56
2022/04/06 01:06:47;;;;;;;2.00;1.90;;;;;;;8.50;100.00;95711.34;5031290;28;101957;-56
2022/04/06 01:09:15;;;;;;;1.83;1.73;;;;;;;8.53;100.00;95716.13;5032546;28;101670;-56
2022/04/06 01:11:46;;;;;;;1.80;1.70;;;;;;;8.56;100.00;95708.47;5032106;28;102651;-55
2022/04/06 01:14:14;;;;;;;1.70;1.60;;;;;;;8.49;100.00;95710.53;5032484;28;101686;-55
2022/04/06 01:16:42;;;;;;;1.83;1.70;;;;;;;8.46;100.00;95707.59;5032723;28;103218;-56
2022/04/06 01:19:09;;;;;;;1.23;1.23;;;;;;;8.41;100.00;95703.03;5031703;28;102735;-55
2022/04/06 01:21:36;;;;;;;1.73;1.63;;;;;;;8.45;100.00;95708.66;5036011;28;101802;-55
2022/04/06 01:24:05;;;;;;;1.70;1.60;;;;;;;8.48;100.00;95705.47;5031549;28;104573;-55
2022/04/06 01:26:34;;;;;;;1.60;1.50;;;;;;;8.51;100.00;95708.41;5031200;28;101911;-55
2022/04/06 01:29:01;;;;;;;2.17;1.70;;;;;;;8.54;100.00;95712.41;5032083;27;104085;-56
2022/04/06 01:31:28;;;;;;;1.60;1.60;;;;;;;8.55;100.00;95706.06;5031798;28;103115;-56
2022/04/06 01:33:55;;;;;;;1.70;1.60;;;;;;;8.49;100.00;95705.22;5032193;28;102261;-56
2022/04/06 01:36:22;;;;;;;2.60;2.40;;;;;;;8.51;100.00;95702.34;5030827;28;104146;-55
2022/04/06 01:38:49;;;;;;;1.80;1.70;;;;;;;8.52;100.00;95704.75;5031580;28;102611;-53
2022/04/06 01:41:19;;;;;;;2.00;1.90;;;;;;;8.53;100.00;95697.56;5032142;28;101995;-57
2022/04/06 01:43:47;;;;;;;1.70;1.60;;;;;;;8.49;100.00;95699.13;5033488;28;105624;-55
2022/04/06 01:46:14;;;;;;;2.10;2.00;;;;;;;8.49;100.00;95691.16;5030674;28;102206;-56
2022/04/06 01:54:07;;;;;;;1.90;1.80;;;;;;;8.42;100.00;95696.72;5030009;28;101858;-56
2022/04/06 01:56:35;;;;;;;2.47;2.00;;;;;;;8.44;100.00;95691.13;5030580;28;104866;-54
2022/04/06 01:59:03;;;;;;;1.90;1.80;;;;;;;8.42;100.00;95694.06;5031163;28;103049;-56
2022/04/06 02:01:29;;;;;;;2.27;2.07;;;;;;;8.40;100.00;95690.06;5031851;28;102204;-56
2022/04/06 02:03:56;;;;;;;2.27;2.17;;;;;;;8.39;100.00;95694.56;5030042;28;105800;-55
2022/04/06 02:06:23;;;;;;;2.00;1.90;;;;;;;8.43;100.00;95684.25;5032164;28;106511;-56
2022/04/06 02:08:50;;;;;;;2.97;2.67;;;;;;;8.49;100.00;95685.88;5030224;28;105482;-56
2022/04/06 02:11:17;;;;;;;2.47;2.27;;;;;;;8.48;100.00;95687.75;5029608;28;105397;-56
2022/04/06 02:13:47;;;;;;;2.60;2.40;;;;;;;8.44;100.00;95686.66;5030074;27;102282;-55
2022/04/06 02:16:14;;;;;;;3.13;2.93;;;;;;;8.46;100.00;95676.56;5064263;27;105453;-56
2022/04/06 02:18:41;;;;;;;2.67;2.47;;;;;;;8.49;100.00;95684.03;5029109;28;105904;-55
2022/04/06 02:21:08;;;;;;;2.67;2.50;;;;;;;8.44;100.00;95677.88;5029734;28;102054;-55
2022/04/06 02:23:35;;;;;;;2.90;2.70;;;;;;;8.43;100.00;95671.81;5030183;28;103961;-55
2022/04/06 02:26:02;;;;;;;2.90;2.70;;;;;;;8.43;100.00;95673.66;5029185;28;104225;-54
2022/04/06 02:28:28;;;;;;;3.07;2.87;;;;;;;8.44;100.00;95676.03;5033375;28;101946;-56
2022/04/06 02:30:57;;;;;;;2.80;2.60;;;;;;;8.47;100.00;95678.19;5029450;28;105386;-53
2022/04/06 02:33:24;;;;;;;3.17;2.97;;;;;;;8.45;100.00;95674.22;5030217;28;101978;-56
2022/04/06 02:35:51;;;;;;;2.50;2.40;;;;;;;8.49;100.00;95670.78;5029964;28;104725;-55
2022/04/06 02:38:18;;;;;;;2.73;2.53;;;;;;;8.49;100.00;95670.78;5030804;28;102621;-56
2022/04/06 02:40:47;;;;;;;2.60;2.50;;;;;;;8.49;100.00;95673.44;5029644;28;103191;-54
2022/04/06 02:43:14;;;;;;;3.03;2.83;;;;;;;8.50;100.00;95667.06;5029740;28;106106;-54
2022/04/06 02:45:41;;;;;;;3.20;3.00;;;;;;;8.44;100.00;95665.44;5029219;28;105272;-55
2022/04/06 02:48:09;;;;;;;2.90;2.70;;;;;;;8.45;100.00;95666.25;5033260;28;101878;-54
2022/04/06 02:50:37;;;;;;;3.00;2.80;;;;;;;8.48;100.00;95666.53;5029009;28;106032;-55
2022/04/06 02:53:04;;;;;;;3.10;2.80;;;;;;;8.50;100.00;95661.78;5029744;28;101807;-55
2022/04/06 02:55:31;;;;;;;3.10;2.90;;;;;;;8.47;100.00;95657.00;5029448;28;105095;-54
2022/04/06 02:57:58;;;;;;;2.90;2.70;;;;;;;8.52;100.00;95651.75;5028939;28;105298;-55
2022/04/06 03:00:26;;;;;;;3.13;2.87;;;;;;;8.56;100.00;95652.81;5063593;27;101953;-55
2022/04/06 03:02:53;;;;;;;3.10;2.90;;;;;;;8.57;100.00;95654.41;5029412;28;105625;-53
2022/04/06 03:05:24;;;;;;;2.90;2.70;;;;;;;8.46;100.00;95644.00;5028845;28;105541;-54
2022/04/06 03:07:52;;;;;;;3.20;2.90;;;;;;;8.45;100.00;95637.13;5029466;28;101873;-55
2022/04/06 03:10:19;;;;;;;2.93;2.73;;;;;;;8.48;100.00;95645.34;5032190;28;103613;-54
2022/04/06 03:12:46;;;;;;;3.20;2.90;;;;;;;8.44;100.00;95635.50;5029457;28;101986;-56
2022/04/06 03:15:15;;;;;;;2.93;2.73;;;;;;;8.46;100.00;95641.34;5063305;27;104383;-53
2022/04/06 03:17:42;;;;;;;3.30;3.00;;;;;;;8.51;100.00;95636.09;5028435;28;105694;-53
2022/04/06 03:20:11;;;;;;;3.20;3.00;;;;;;;8.48;100.00;95639.25;5029342;28;101804;-54
2022/04/06 03:22:40;;;;;;;3.03;2.83;;;;;;;8.50;100.00;95631.84;5029373;28;105112;-55
2022/04/06 03:25:08;;;;;;;3.10;2.80;;;;;;;8.41;100.00;95626.19;5027829;27;105050;-53
2022/04/06 03:27:35;;;;;;;3.17;2.97;;;;;;;8.45;100.00;95621.22;5029138;28;101857;-56
2022/04/06 03:30:03;;;;;;;2.80;2.60;;;;;;;8.40;100.00;95623.84;5029119;28;105196;-56
2022/04/06 03:32:30;;;;;;;3.07;2.87;;;;;;;8.36;100.00;95620.09;5032076;28;105862;-53
2022/04/06 03:34:57;;;;;;;3.00;2.70;;;;;;;8.41;100.00;95612.19;5028973;28;106406;-51
2022/04/06 03:37:24;;;;;;;2.73;2.53;;;;;;;8.36;100.00;95620.91;5029771;27;103037;-55
2022/04/06 03:39:53;;;;;;;3.33;3.03;;;;;;;8.38;100.00;95612.69;5028992;28;102019;-55
2022/04/06 03:42:19;;;;;;;3.37;3.17;;;;;;;8.29;100.00;95622.16;5028979;28;104998;-54
2022/04/06 03:44:47;;;;;;;3.07;2.77;;;;;;;8.37;100.00;95611.91;5027981;28;105575;-56
2022/04/06 03:47:14;;;;;;;3.13;2.93;;;;;;;8.36;100.00;95615.59;5029001;28;101713;-53
2022/04/06 03:49:41;;;;;;;2.97;2.63;;;;;;;8.38;100.00;95618.78;5030278;28;102397;-55
2022/04/06 03:52:08;;;;;;;3.20;3.00;;;;;;;8.37;100.00;95619.03;5028224;28;105578;-56
2022/04/06 03:54:35;;;;;;;2.83;2.63;;;;;;;8.41;100.00;95606.88;5031762;28;101943;-55
2022/04/06 03:57:05;;;;;;;2.93;2.73;;;;;;;8.42;100.00;95605.81;5028164;28;105342;-55
2022/04/06 03:59:33;;;;;;;3.00;2.80;;;;;;;8.30;100.00;95606.00;5028685;28;101862;-55
2022/04/06 04:01:59;;;;;;;3.83;3.53;;;;;;;8.31;100.00;95602.31;5030149;27;101819;-55
2022/04/06 04:04:28;;;;;;;3.70;3.40;;;;;;;8.34;100.00;95604.44;5027968;28;105752;-55
2022/04/06 04:06:55;;;;;;;3.70;3.10;;;;;;;8.33;100.00;95602.03;5028581;28;101825;-56
2022/04/06 04:09:22;;;;;;;3.60;3.30;;;;;;;8.27;100.00;95605.72;5028364;28;106319;-55
2022/04/06 04:11:49;;;;;;;3.53;3.23;;;;;;;8.17;100.00;95602.97;5028016;28;105679;-56
2022/04/06 04:14:18;;;;;;;3.33;3.03;;;;;;;8.22;100.00;95598.53;5028622;28;102043;-56
2022/04/06 04:16:45;;;;;;;3.47;3.20;;;;;;;8.25;100.00;95600.69;5031359;28;105594;-56
2022/04/06 04:19:12;;;;;;;3.43;3.20;;;;;;;8.22;100.00;95600.38;5028314;28;101910;-56
2022/04/06 04:21:39;;;;;;;3.17;2.80;;;;;;;8.18;100.00;95605.34;5029784;28;102620;-55
2022/04/06 04:24:09;;;;;;;4.17;3.30;;;;;;;8.19;100.00;95600.88;5028936;28;102710;-55
2022/04/06 04:26:38;;;;;;;3.33;3.03;;;;;;;8.19;100.00;95595.56;5028388;28;101991;-52
2022/04/06 04:29:07;;;;;;;3.40;3.10;;;;;;;8.18;100.00;95601.94;5029727;27;102512;-56
2022/04/06 04:31:36;;;;;;;3.63;3.33;;;;;;;8.11;100.00;95596.84;5028647;27;102973;-52
2022/04/06 04:34:03;;;;;;;3.60;3.33;;;;;;;8.07;100.00;95600.25;5029830;28;101705;-55
2022/04/06 04:36:31;;;;;;;4.03;3.63;;;;;;;8.04;100.00;95604.22;5028236;27;103569;-55
2022/04/06 04:38:58;;;;;;;3.77;3.53;;;;;;;8.00;100.00;95603.13;5034375;28;103759;-56
2022/04/06 04:41:25;;;;;;;3.67;3.37;;;;;;;7.97;100.00;95600.97;5031577;28;102446;-56
2022/04/06 04:43:52;;;;;;;4.00;3.60;;;;;;;7.97;100.00;95610.75;5032671;27;102976;-54
2022/04/06 04:46:21;;;;;;;3.83;3.53;;;;;;;7.96;100.00;95598.59;5031667;28;102140;-56
2022/04/06 04:48:50;;;;;;;3.87;3.57;;;;;;;7.97;100.00;95597.53;5031181;28;104969;-55
2022/04/06 04:51:19;;;;;;;4.30;3.90;;;;;;;7.98;100.00;95597.28;5032015;28;103223;-55
2022/04/06 04:53:46;;;;;;;4.00;3.70;;;;;;;7.96;100.00;95591.44;5031543;28;101840;-56
2022/04/06 04:56:12;;;;;;;4.40;4.00;;;;;;;7.98;100.00;95596.47;5031336;28;105012;-55
2022/04/06 04:58:39;;;;;;;4.60;4.20;;;;;;;7.98;100.00;95589.34;5034342;28;105883;-56
2022/04/06 05:01:07;;;;;;;4.40;4.00;;;;;;;7.99;100.00;95598.06;5030984;28;105484;-56
2022/04/06 05:03:35;;;;;;;4.27;3.97;;;;;;;8.00;100.00;95595.16;5031996;28;104330;-56
2022/04/06 05:06:04;;;;;;;4.83;4.20;;;;;;;8.05;100.00;95597.06;5031046;28;101933;-56
2022/04/06 05:08:30;;;;;;;4.80;4.40;;;;;;;8.01;100.00;95594.13;5031429;28;106146;-55
2022/04/06 05:10:58;;;;;;;4.70;4.30;;;;;;;7.97;100.00;95593.00;5032005;28;102642;-55
2022/04/06 05:13:25;;;;;;;5.33;4.90;;;;;;;8.02;100.00;95600.22;5014747;28;101808;-56
2022/04/06 05:15:52;;;;;;;4.53;4.23;;;;;;;8.02;100.00;95597.56;5031047;28;104995;-56
2022/04/06 05:18:19;;;;;;;5.70;5.20;;;;;;;7.99;100.00;95588.28;5030328;28;106527;-55
2022/04/06 05:20:46;;;;;;;5.50;5.00;;;;;;;8.08;100.00;95592.03;5034359;28;101870;-52
2022/04/06 05:23:15;;;;;;;5.07;4.57;;;;;;;8.07;100.00;95598.41;5030367;28;105309;-55
2022/04/06 05:25:42;;;;;;;4.70;4.30;;;;;;;8.16;100.00;95596.06;5031182;28;101862;-55
2022/04/06 05:28:09;;;;;;;5.10;4.70;;;;;;;8.19;100.00;95593.72;5031091;28;105299;-56
2022/04/06 05:30:38;;;;;;;5.63;4.83;;;;;;;8.27;100.00;95595.13;5030243;28;105304;-55
2022/04/06 05:33:07;;;;;;;5.47;4.97;;;;;;;8.37;100.00;95596.00;5030911;28;102023;-56
2022/04/06 05:35:34;;;;;;;5.03;4.63;;;;;;;8.37;100.00;95595.19;5030596;28;106166;-58
2022/04/06 05:38:01;;;;;;;4.63;4.33;;;;;;;8.27;100.00;95593.28;5030294;28;104194;-58
2022/04/06 05:40:35;;;;;;;4.70;4.30;;;;;;;8.29;100.00;95600.97;5030885;28;102008;-58
2022/04/06 05:43:02;;;;;;;5.20;4.80;;;;;;;8.45;100.00;95592.84;5035144;28;102361;-58
2022/04/06 05:45:29;;;;;;;5.50;5.10;;;;;;;8.50;100.00;95597.41;5030670;28;101852;-58
2022/04/06 05:47:56;;;;;;;5.57;4.90;;;;;;;8.53;100.00;95595.03;5030343;28;105132;-58
2022/04/06 05:50:23;;;;;;;5.63;5.13;;;;;;;8.64;100.00;95602.00;5029971;28;105208;-58
2022/04/06 05:52:51;;;;;;;4.83;4.43;;;;;;;8.58;100.00;95604.84;5030617;28;101851;-58
2022/04/06 05:55:18;;;;;;;5.07;4.57;;;;;;;8.58;100.00;95604.84;5029704;28;105241;-58
2022/04/06 05:57:46;;;;;;;5.40;4.90;;;;;;;8.51;100.00;95596.34;5031359;28;102544;-59
2022/04/06 06:00:15;;;;;;;5.77;5.27;;;;;;;8.59;100.00;95598.50;5064637;27;101954;-59
2022/04/06 06:02:43;;;;;;;5.20;4.80;;;;;;;8.62;100.00;95598.00;5030499;28;104905;-59
2022/04/06 06:05:10;;;;;;;6.90;4.83;;;;;;;8.67;100.00;95595.38;5034490;27;102458;-58
2022/04/06 06:07:37;;;;;;;4.93;4.53;;;;;;;8.73;100.00;95589.81;5030195;28;105319;-59
2022/04/06 06:10:05;;;;;;;5.00;4.60;;;;;;;8.71;100.00;95591.13;5029998;28;105290;-59
2022/04/06 06:12:31;;;;;;;5.53;5.03;;;;;;;8.86;100.00;95596.53;5030251;28;101945;-58
2022/04/06 06:15:02;;;;;;;5.07;4.67;;;;;;;8.87;100.00;95590.16;5030304;28;104286;-59
2022/04/06 06:17:28;;;;;;;4.90;4.50;;;;;;;9.00;100.00;95584.41;5029609;28;104306;-59
2022/04/06 06:19:55;;;;;;;5.03;4.53;;;;;;;9.13;100.00;95595.31;5029949;28;102166;-59
2022/04/06 06:22:22;;;;;;;4.97;4.47;;;;;;;9.28;100.00;95594.56;5030295;28;105642;-59
2022/04/06 06:24:49;;;;;;;4.47;4.10;;;;;;;9.41;100.00;95594.88;5029518;28;105382;-59
2022/04/06 06:27:19;;;;;;;4.60;4.23;;;;;;;9.63;100.00;95592.78;5033461;28;102011;-59
2022/04/06 06:29:48;;;;;;;4.07;3.67;;;;;;;9.65;100.00;95592.53;5029072;28;105344;-59
2022/04/06 06:32:17;;;;;;;4.47;4.07;;;;;;;9.79;100.00;95590.94;5031380;28;101911;-58
2022/04/06 06:34:44;;;;;;;3.90;3.60;;;;;;;9.87;100.00;95582.47;5063770;27;104588;-58
2022/04/06 06:37:12;;;;;;;4.07;3.67;;;;;;;10.02;100.00;95587.75;5062968;27;105344;-59
2022/04/06 06:39:39;;;;;;;3.90;3.60;;;;;;;10.14;100.00;95580.38;5029905;28;102032;-59
2022/04/06 06:42:08;;;;;;;3.40;3.20;;;;;;;10.40;100.00;95580.06;5029697;28;103609;-59
2022/04/06 06:44:34;;;;;;;3.63;3.33;;;;;;;10.52;100.00;95579.78;5029242;28;105148;-59
2022/04/06 06:47:01;;;;;;;2.90;2.70;;;;;;;10.75;100.00;95581.84;5029595;28;101847;-59
2022/04/06 06:49:30;;;;;;;3.70;3.40;;;;;;;10.86;100.00;95578.09;5033973;28;102946;-58
2022/04/06 06:51:57;;;;;;;3.60;3.30;;;;;;;10.77;100.00;95569.88;5029616;28;102008;-59
2022/04/06 06:54:25;;;;;;;3.20;2.90;;;;;;;10.86;100.00;95572.78;5029421;28;105616;-59
2022/04/06 06:56:52;;;;;;;3.63;3.33;;;;;;;10.81;100.00;95570.94;5030527;28;103490;-59
2022/04/06 06:59:19;;;;;;;2.77;2.57;;;;;;;11.10;100.00;95557.75;5029298;27;102384;-58
2022/04/06 07:01:45;;;;;;;2.87;2.67;;;;;;;11.18;100.00;95565.19;5028932;28;105069;-59
2022/04/06 07:04:12;;;;;;;2.77;2.50;;;;;;;11.29;100.00;95562.19;5028924;28;105134;-59
2022/04/06 07:06:40;;;;;;;2.97;2.67;;;;;;;11.45;100.00;95561.03;5029607;28;101949;-59
2022/04/06 07:09:08;;;;;;;2.97;2.77;;;;;;;11.66;100.00;95556.44;5032398;28;105170;-59
2022/04/06 07:11:35;;;;;;;2.77;2.50;;;;;;;11.71;100.00;95546.53;5029353;28;101990;-59
2022/04/06 07:14:01;;;;;;;2.57;2.30;;;;;;;11.78;100.00;95546.22;5029178;28;104806;-59
2022/04/06 07:16:29;;;;;;;2.73;2.37;;;;;;;11.99;100.00;95545.75;5030159;28;102591;-59
2022/04/06 07:18:56;;;;;;;2.60;2.40;;;;;;;11.99;100.00;95548.44;5030461;27;101872;-59
2022/04/06 07:21:23;;;;;;;2.80;2.60;;;;;;;12.22;100.00;95544.25;5012323;28;105465;-60
2022/04/06 07:23:51;;;;;;;2.40;2.20;;;;;;;12.28;100.00;95545.78;5028661;28;104173;-59
2022/04/06 07:26:18;;;;;;;2.90;2.40;;;;;;;12.28;100.00;95540.44;5029250;28;102373;-59
2022/04/06 07:28:46;;;;;;;2.67;2.47;;;;;;;12.11;100.00;95540.06;5029291;28;103933;-59
2022/04/06 07:31:13;;;;;;;2.10;2.00;;;;;;;12.43;100.00;95548.31;5031252;28;105480;-59
2022/04/06 07:33:41;;;;;;;2.40;2.20;;;;;;;12.53;100.00;95543.66;5028962;28;105325;-59
2022/04/06 07:36:08;;;;;;;2.03;1.93;;;;;;;12.48;100.00;95540.25;5028346;28;105486;-59
2022/04/06 07:38:35;;;;;;;2.70;2.50;;;;;;;12.58;100.00;95540.94;5029053;28;102052;-59
2022/04/06 07:41:04;;;;;;;2.20;2.10;;;;;;;12.84;100.00;95541.44;5028972;28;104894;-59
2022/04/06 07:43:31;;;;;;;3.23;2.30;;;;;;;13.06;100.00;95539.88;5029831;28;102522;-59
2022/04/06 07:45:58;;;;;;;2.40;2.07;;;;;;;13.28;100.00;95534.78;5028746;28;101905;-59
2022/04/06 07:48:27;;;;;;;2.40;2.20;;;;;;;13.19;100.00;95525.81;5029024;28;105065;-59
2022/04/06 07:50:55;;;;;;;2.10;2.00;;;;;;;13.37;100.00;95534.94;5028104;28;105080;-59
2022/04/06 07:53:22;;;;;;;2.73;2.50;;;;;;;13.42;100.00;95530.31;5032084;28;101886;-59
2022/04/06 07:55:49;;;;;;;2.50;2.30;;;;;;;13.63;100.00;95531.63;5027889;28;105348;-59
2022/04/06 07:58:19;;;;;;;2.17;1.97;;;;;;;13.79;100.00;95532.19;5028372;28;102198;-58
2022/04/06 08:00:46;;;;;;;3.03;2.50;;;;;;;13.77;100.00;95532.47;5029918;27;102315;-59
2022/04/06 08:03:13;;;;;;;2.60;2.40;;;;;;;14.01;100.00;95527.81;5027827;28;104084;-59
2022/04/06 08:05:40;;;;;;;2.30;2.10;;;;;;;13.99;100.00;95524.66;5028628;28;101958;-58
2022/04/06 08:08:07;;;;;;;2.00;1.90;;;;;;;13.89;100.00;95522.13;5028145;28;105483;-60
2022/04/06 08:10:35;;;;;;;4.67;2.20;;;;;;;14.10;100.00;95517.25;5029419;28;102661;-59
2022/04/06 08:13:02;;;;;;;3.33;2.30;;;;;;;14.32;100.00;95514.75;5031919;28;102050;-59
2022/04/06 08:15:30;;;;;;;2.50;2.30;;;;;;;14.25;100.00;95509.00;5034967;28;105015;-59
2022/04/06 08:17:58;;;;;;;3.07;2.30;;;;;;;14.44;100.00;95512.41;5033324;28;101698;-59
2022/04/06 08:20:24;;;;;;;2.40;2.30;;;;;;;14.64;100.00;95504.00;5032153;28;105212;-59
2022/04/06 08:22:51;;;;;;;2.27;2.10;;;;;;;14.72;100.00;95503.31;5031204;28;105026;-59
2022/04/06 08:25:18;;;;;;;2.37;2.17;;;;;;;14.79;100.00;95506.38;5032032;28;101932;-59
2022/04/06 08:27:46;;;;;;;2.13;1.93;;;;;;;15.02;100.00;95500.81;5031841;28;105167;-60
2022/04/06 08:30:16;;;;;;;2.60;2.40;;;;;;;15.18;100.00;95499.41;5031291;28;105044;-60
2022/04/06 08:32:45;;;;;;;2.97;2.20;;;;;;;15.32;100.00;95502.06;5031878;28;101854;-59
2022/04/06 08:35:12;;;;;;;1.80;1.70;;;;;;;15.40;100.00;95493.34;5031693;28;105226;-59
2022/04/06 08:37:40;;;;;;;1.60;1.50;;;;;;;15.36;100.00;95490.47;5034660;28;105703;-59
2022/04/06 08:40:11;;;;;;;1.80;1.70;;;;;;;15.45;100.00;95494.03;5033271;28;102317;-60
2022/04/06 08:42:39;;;;;;;1.77;1.60;;;;;;;15.53;100.00;95492.53;5032236;28;102581;-60
2022/04/06 08:45:07;;;;;;;2.40;2.20;;;;;;;15.72;100.00;95487.78;5033035;27;101871;-59
2022/04/06 08:47:36;;;;;;;2.23;1.70;;;;;;;15.93;100.00;95486.19;5033108;28;101680;-59
2022/04/06 08:50:09;;;;;;;1.20;1.10;;;;;;;15.91;100.00;95483.81;5032188;28;103291;-59
2022/04/06 08:52:37;;;;;;;1.50;1.07;;;;;;;15.89;100.00;95486.03;5031756;28;101898;-59
2022/04/06 08:55:04;;;;;;;2.00;1.60;;;;;;;15.86;100.00;95475.13;5032277;27;102310;-60
2022/04/06 08:57:32;;;;;;;1.40;1.30;;;;;;;15.70;100.00;95484.63;5030790;28;105579;-59
2022/04/06 08:59:59;;;;;;;1.50;1.40;;;;;;;15.89;100.00;95480.66;5034782;28;101827;-58
2022/04/06 09:02:27;;;;;;;1.77;1.17;;;;;;;15.93;100.00;95478.97;5030788;28;105931;-59
2022/04/06 09:04:55;;;;;;;1.50;1.40;;;;;;;16.13;100.00;95475.75;5032596;28;102253;-59
2022/04/06 09:07:25;;;;;;;1.40;1.30;;;;;;;16.22;100.00;95481.16;5032785;28;102520;-60
2022/04/06 09:09:53;;;;;;;1.27;1.17;;;;;;;16.36;100.00;95476.53;5013878;28;106297;-59
2022/04/06 09:12:23;;;;;;;1.10;1.10;;;;;;;15.85;100.00;95470.84;5032313;27;102345;-59
2022/04/06 09:15:04;;;;;;;1.30;1.20;;;;;;;16.20;100.00;95469.97;5032022;27;104503;-59
2022/04/06 09:17:31;;;;;;;2.00;0.90;;;;;;;16.04;100.00;95469.56;5032009;28;103216;-58
2022/04/06 09:19:59;;;;;;;1.23;1.23;;;;;;;16.37;100.00;95464.69;5034505;28;101977;-59
2022/04/06 09:22:29;;;;;;;2.70;2.07;;;;;;;16.36;100.00;95463.88;5031363;27;102534;-59
2022/04/06 09:25:00;;;;;;;2.20;2.00;;;;;;;16.42;100.00;95461.91;5031989;27;101865;-59
2022/04/06 09:27:31;;;;;;;1.27;1.10;;;;;;;16.14;100.00;95457.78;5031022;28;104959;-59
2022/04/06 09:29:59;;;;;;;0.70;0.70;;;;;;;16.21;100.00;95460.81;5031991;27;103116;-59
2022/04/06 09:32:26;;;;;;;1.67;1.00;;;;;;;16.08;100.00;95450.97;5030919;28;102055;-59
2022/04/06 09:34:53;;;;;;;4.83;4.27;;;;;;;16.21;100.00;95458.94;5032171;27;102325;-59
2022/04/06 09:37:24;;;;;;;1.40;1.30;;;;;;;16.74;100.00;95456.19;5030364;28;105096;-59
2022/04/06 09:39:55;;;;;;;1.13;1.13;;;;;;;17.10;100.00;95443.31;5032236;27;101897;-59
2022/04/06 09:42:25;;;;;;;1.20;1.00;;;;;;;16.70;99.41;95441.81;5033256;28;105502;-59
2022/04/06 09:47:42;;;;;;;1.20;1.10;;;;;;;16.99;100.00;95440.16;5030794;28;105666;-59
2022/04/06 09:50:19;;;;;;;0.90;0.90;;;;;;;17.33;100.00;95432.13;5031419;28;104276;-58
2022/04/06 09:52:47;;;;;;;1.30;1.20;;;;;;;17.37;98.15;95426.91;5032195;28;101730;-59
2022/04/06 09:55:17;;;;;;;0.80;0.80;;;;;;;16.75;95.92;95429.03;5031321;28;102298;-59
2022/04/06 09:57:47;;;;;;;0.80;0.80;;;;;;;16.82;99.61;95423.19;5029879;28;106385;-59
2022/04/06 10:00:18;;;;;;;0.70;0.70;;;;;;;16.70;97.18;95423.00;5031900;27;102225;-59
2022/04/06 10:02:48;;;;;;;0.97;0.80;;;;;;;16.52;98.60;95413.31;5032036;27;102839;-59
2022/04/06 10:05:16;;;;;;;0.83;0.83;;;;;;;16.66;96.68;95414.78;5034535;28;106445;-59
2022/04/06 10:07:43;;;;;;;0.70;0.70;;;;;;;16.80;98.68;95415.47;5031806;28;102356;-59
2022/04/06 10:10:13;;;;;;;0.80;0.80;;;;;;;17.01;99.32;95404.91;5029557;28;105987;-59
2022/04/06 10:12:42;;;;;;;0.90;0.90;;;;;;;16.91;97.16;95406.03;5031794;27;101654;-59
2022/04/06 10:15:09;;;;;;;1.30;1.30;;;;;;;17.14;96.84;95393.22;5031726;27;102363;-59
2022/04/06 10:17:39;;;;;;;0.80;0.80;;;;;;;16.68;99.15;95396.47;5030898;28;103063;-59
2022/04/06 10:20:23;;;;;;;0.97;0.80;;;;;;;17.19;94.02;95385.03;5029980;28;101979;-59
2022/04/06 10:23:01;;;;;;;0.80;0.80;;;;;;;17.35;94.91;95378.06;5031659;28;102638;-59
2022/04/06 10:25:37;;;;;;;0.93;0.93;;;;;;;17.22;92.51;95379.03;5029580;28;103741;-59
2022/04/06 10:28:11;;;;;;;0.90;0.90;;;;;;;17.91;92.37;95375.16;5033624;28;101797;-59
2022/04/06 10:30:38;;;;;;;0.80;0.80;;;;;;;18.54;89.59;95367.06;5029618;28;105509;-59
2022/04/06 10:33:20;;;;;;;0.70;0.70;;;;;;;18.78;76.74;95362.63;5031061;27;101837;-59
2022/04/06 10:35:48;;;;;;;0.60;0.60;;;;;;;18.29;79.24;95360.66;5030069;27;102553;-59
2022/04/06 10:38:18;;;;;;;0.93;0.93;;;;;;;18.32;75.68;95356.56;5030671;28;102533;-59
2022/04/06 10:41:07;;;;;;;1.00;1.00;;;;;;;17.62;83.44;95350.88;5031554;27;101662;-59
2022/04/06 10:43:58;;;;;;;0.87;0.87;;;;;;;18.44;78.72;95346.69;5029922;28;105186;-59
2022/04/06 10:46:39;;;;;;;0.80;0.80;;;;;;;17.75;86.26;95344.50;5029023;28;105581;-59
2022/04/06 10:49:16;;;;;;;1.00;0.90;;;;;;;18.11;84.37;95347.56;5031153;27;101849;-59
2022/04/06 10:51:45;;;;;;;3.43;1.17;;;;;;;17.96;82.90;95340.03;5033866;28;104500;-59
2022/04/06 10:54:40;;;;;;;0.77;0.77;;;;;;;18.29;80.20;95327.53;5029076;28;101965;-59
2022/04/06 10:57:08;;;;;;;0.60;0.60;;;;;;;18.57;73.83;95328.69;5029561;28;105267;-59
2022/04/06 10:59:37;;;;;;;0.70;0.70;;;;;;;18.02;81.79;95326.09;5030382;27;102474;-59
2022/04/06 11:02:26;;;;;;;0.80;0.80;;;;;;;19.10;83.79;95320.72;5031135;27;101834;-59
2022/04/06 11:04:54;;;;;;;0.70;0.67;;;;;;;18.85;73.83;95314.41;5030918;27;102299;-59
2022/04/06 11:10:25;;;;;;;0.60;0.60;;;;;;;17.60;81.91;95310.88;5029436;28;102092;-59
2022/04/06 11:13:01;;;;;;;0.57;0.57;;;;;;;17.68;82.11;95307.38;5029599;28;103723;-59
2022/04/06 11:15:40;;;;;;;1.17;0.83;;;;;;;17.86;81.01;95294.66;5033588;27;101835;-58
2022/04/06 11:18:47;;;;;;;0.70;0.70;;;;;;;17.45;84.34;95305.97;5030404;28;102476;-59
2022/04/06 11:21:14;;;;;;;0.60;0.60;;;;;;;17.56;85.22;95298.38;5030392;27;103103;-59
2022/04/06 11:23:42;;;;;;;0.50;0.50;;;;;;;17.56;86.30;95295.69;5030650;27;101679;-59
2022/04/06 11:26:08;;;;;;;1.13;0.50;;;;;;;18.04;76.77;95290.81;5030507;27;102473;-59
2022/04/06 11:28:35;;;;;;;0.73;0.40;;;;;;;18.14;77.63;95291.22;5030000;28;102706;-59
2022/04/06 11:31:05;;;;;;;0.80;0.33;;;;;;;18.07;77.71;95282.06;5028773;28;102101;-59
2022/04/06 11:33:42;;;;;;;1.87;0.40;;;;;;;18.02;77.41;95280.34;5030625;27;103030;-59
2022/04/06 11:36:13;;;;;;;0.40;0.40;;;;;;;18.10;83.36;95276.06;5033227;27;103060;-59
2022/04/06 11:38:41;;;;;;;0.30;0.30;;;;;;;18.80;72.31;95276.13;5030277;28;102496;-59
2022/04/06 11:41:08;;;;;;;0.30;0.30;;;;;;;18.62;74.49;95264.69;5029449;28;102545;-59